Mato Verde, Brazil
Current Conditions -  °F | °C
As of 6:00 PM on Saturday 27 Dec 2014 (Local Time) from SBMK Reporting Station
Clear Clear  
Wind Chill: 90°   Ceiling: Unl
Heat Index: 90°   Visibility: 6mi
Dew Point: 48°   Wind: 8mph
Humidity: 24%   Direction: 90°E
Pressure: 30"   Gusts: NA
Location:  15.4°S, 42.87°W
Report Text: SBMK 272000Z 09007KT CAVOK 32/09 Q1016
Loading
Personal Weather Stations






























Interactive Weather Map New forecast layout! Learn more

10-Day Weather Forecast

Advertisements
Track Severe Weather on mobile